Terminal Aerodrome Forecast
Issued by NWS

Home | Current Version | Previous Version | Text Only | Print | Product List | Glossary On
Versions: 1 2 3 4 5 6 7 8 9 10 11 12 13 14 15 16 17 18 19 20 21 22 23 24 25 26 27 28 29
167
FTUS46 KLOX 280409 AAB
TAFSBP
TAF AMD
KSBP 280409Z 2804/2824 31010KT P6SM BKN005
     FM280600 31006KT 4SM BR OVC004
     FM280800 VRB03KT 1/2SM FG OVC002
     FM281600 31006KT P6SM BKN012
     FM281730 31008KT P6SM SCT012
     FM282000 31012KT P6SM SKC=

USA.gov is the U.S. government's official web portal to all federal, state and local government web resources and services.